sensor_id;sensor_type;location;lat;lon;timestamp;pressure;altitude;pressure_sealevel;temperature;humidity
24390;BME280;12510;56.468;-3.004;2023-09-18T00:00:04;43228.31;;;-148.32;100.00
24390;BME280;12510;56.468;-3.004;2023-09-18T00:02:40;42352.47;;;-148.32;100.00
24390;BME280;12510;56.468;-3.004;2023-09-18T00:05:07;42644.41;;;-148.32;100.00
24390;BME280;12510;56.468;-3.004;2023-09-18T00:07:33;42801.31;;;-148.32;100.00
24390;BME280;12510;56.468;-3.004;2023-09-18T00:10:00;41490.72;;;-148.32;100.00
24390;BME280;12510;56.468;-3.004;2023-09-18T00:12:26;41701.16;;;-148.32;100.00
24390;BME280;12510;56.468;-3.004;2023-09-18T00:14:52;41840.16;;;-148.32;100.00
24390;BME280;12510;56.468;-3.004;2023-09-18T00:17:19;42277.00;;;-148.32;100.00
24390;BME280;12510;56.468;-3.004;2023-09-18T00:19:47;42130.06;;;-148.32;100.00
24390;BME280;12510;56.468;-3.004;2023-09-18T00:22:13;42090.34;;;-148.32;100.00
24390;BME280;12510;56.468;-3.004;2023-09-18T00:24:40;42038.72;;;-148.32;100.00
24390;BME280;12510;56.468;-3.004;2023-09-18T00:27:06;42330.63;;;-148.32;100.00
24390;BME280;12510;56.468;-3.004;2023-09-18T00:29:33;42562.97;;;-148.32;100.00
24390;BME280;12510;56.468;-3.004;2023-09-18T00:31:59;43242.22;;;-148.32;100.00
24390;BME280;12510;56.468;-3.004;2023-09-18T00:34:26;42831.09;;;-148.32;100.00
24390;BME280;12510;56.468;-3.004;2023-09-18T00:36:52;42819.16;;;-148.32;100.00
24390;BME280;12510;56.468;-3.004;2023-09-18T00:39:20;43347.50;;;-148.32;100.00
24390;BME280;12510;56.468;-3.004;2023-09-18T00:41:46;43277.97;;;-148.32;100.00
24390;BME280;12510;56.468;-3.004;2023-09-18T00:44:16;43192.56;;;-148.32;100.00
24390;BME280;12510;56.468;-3.004;2023-09-18T00:46:43;43333.59;;;-148.32;100.00
24390;BME280;12510;56.468;-3.004;2023-09-18T00:49:09;42459.72;;;-148.32;100.00
24390;BME280;12510;56.468;-3.004;2023-09-18T00:51:38;41466.88;;;-148.32;100.00
24390;BME280;12510;56.468;-3.004;2023-09-18T00:54:05;43365.38;;;-148.32;100.00
24390;BME280;12510;56.468;-3.004;2023-09-18T00:56:33;41627.69;;;-148.32;100.00
24390;BME280;12510;56.468;-3.004;2023-09-18T00:59:00;42592.75;;;-148.32;100.00
24390;BME280;12510;56.468;-3.004;2023-09-18T01:01:29;42463.69;;;-148.32;100.00
24390;BME280;12510;56.468;-3.004;2023-09-18T01:03:57;42028.78;;;-148.32;100.00
24390;BME280;12510;56.468;-3.004;2023-09-18T01:06:27;41883.84;;;-148.32;100.00
24390;BME280;12510;56.468;-3.004;2023-09-18T01:08:56;40533.84;;;-148.32;100.00
24390;BME280;12510;56.468;-3.004;2023-09-18T01:14:36;41788.53;;;-148.32;100.00
24390;BME280;12510;56.468;-3.004;2023-09-18T01:17:04;41689.25;;;-148.32;100.00
24390;BME280;12510;56.468;-3.004;2023-09-18T01:22:08;41034.09;;;-148.32;100.00
24390;BME280;12510;56.468;-3.004;2023-09-18T01:24:36;42020.84;;;-148.32;100.00
24390;BME280;12510;56.468;-3.004;2023-09-18T01:27:03;42936.34;;;-148.32;100.00
24390;BME280;12510;56.468;-3.004;2023-09-18T01:29:31;41615.78;;;-148.32;100.00
24390;BME280;12510;56.468;-3.004;2023-09-18T01:31:57;41182.97;;;-148.32;100.00
24390;BME280;12510;56.468;-3.004;2023-09-18T01:34:31;42235.31;;;-148.32;100.00
24390;BME280;12510;56.468;-3.004;2023-09-18T01:37:00;42719.88;;;-148.32;100.00
24390;BME280;12510;56.468;-3.004;2023-09-18T01:39:28;42777.47;;;-148.32;100.00
24390;BME280;12510;56.468;-3.004;2023-09-18T01:41:59;43854.06;;;-148.32;100.00
24390;BME280;12510;56.468;-3.004;2023-09-18T01:44:28;43377.31;;;-148.32;100.00
24390;BME280;12510;56.468;-3.004;2023-09-18T01:46:56;43087.31;;;-148.32;100.00
24390;BME280;12510;56.468;-3.004;2023-09-18T01:49:28;42559.00;;;-148.32;100.00
24390;BME280;12510;56.468;-3.004;2023-09-18T01:51:55;41282.25;;;-148.32;100.00
24390;BME280;12510;56.468;-3.004;2023-09-18T01:54:22;41139.31;;;-148.32;100.00
24390;BME280;12510;56.468;-3.004;2023-09-18T01:56:49;41133.34;;;-148.32;100.00
24390;BME280;12510;56.468;-3.004;2023-09-18T01:59:16;41895.75;;;-148.32;100.00
24390;BME280;12510;56.468;-3.004;2023-09-18T02:01:44;42380.28;;;-148.32;100.00
24390;BME280;12510;56.468;-3.004;2023-09-18T02:04:10;42916.50;;;-148.32;100.00
24390;BME280;12510;56.468;-3.004;2023-09-18T02:06:37;44148.09;;;-148.32;100.00
24390;BME280;12510;56.468;-3.004;2023-09-18T02:09:03;43564.03;;;-148.32;100.00
24390;BME280;12510;56.468;-3.004;2023-09-18T02:11:30;43752.75;;;-148.32;100.00
24390;BME280;12510;56.468;-3.004;2023-09-18T02:13:56;43530.25;;;-148.32;100.00
24390;BME280;12510;56.468;-3.004;2023-09-18T02:16:23;42884.72;;;-148.32;100.00
24390;BME280;12510;56.468;-3.004;2023-09-18T02:18:50;43198.53;;;-148.32;100.00
24390;BME280;12510;56.468;-3.004;2023-09-18T02:21:20;43397.16;;;-148.32;100.00
24390;BME280;12510;56.468;-3.004;2023-09-18T02:23:51;42145.94;;;-148.32;100.00
24390;BME280;12510;56.468;-3.004;2023-09-18T02:26:19;42002.97;;;-148.32;100.00
24390;BME280;12510;56.468;-3.004;2023-09-18T02:28:46;42787.41;;;-148.32;100.00
24390;BME280;12510;56.468;-3.004;2023-09-18T02:31:13;43641.50;;;-148.32;100.00
24390;BME280;12510;56.468;-3.004;2023-09-18T02:33:40;43506.41;;;-148.32;100.00
24390;BME280;12510;56.468;-3.004;2023-09-18T02:36:07;42588.78;;;-148.32;100.00
24390;BME280;12510;56.468;-3.004;2023-09-18T02:38:34;43174.69;;;-148.32;100.00
24390;BME280;12510;56.468;-3.004;2023-09-18T02:41:01;42741.72;;;-148.32;100.00
24390;BME280;12510;56.468;-3.004;2023-09-18T02:43:27;43174.69;;;-148.32;100.00
24390;BME280;12510;56.468;-3.004;2023-09-18T02:45:54;43065.47;;;-148.32;100.00
24390;BME280;12510;56.468;-3.004;2023-09-18T02:48:20;43375.31;;;-148.32;100.00
24390;BME280;12510;56.468;-3.004;2023-09-18T02:50:46;43504.44;;;-148.32;100.00
24390;BME280;12510;56.468;-3.004;2023-09-18T02:53:24;42682.13;;;-148.32;100.00
24390;BME280;12510;56.468;-3.004;2023-09-18T02:55:53;40005.91;;;-148.32;100.00
24390;BME280;12510;56.468;-3.004;2023-09-18T02:58:20;38960.13;;;-148.32;100.00
24390;BME280;12510;56.468;-3.004;2023-09-18T03:00:49;39301.41;;;-148.32;100.00
24390;BME280;12510;56.468;-3.004;2023-09-18T03:03:16;40311.53;;;-148.32;100.00
24390;BME280;12510;56.468;-3.004;2023-09-18T03:05:44;41262.38;;;-148.32;100.00
24390;BME280;12510;56.468;-3.004;2023-09-18T03:08:11;41965.25;;;-148.32;100.00
24390;BME280;12510;56.468;-3.004;2023-09-18T03:10:40;41425.19;;;-148.32;100.00
24390;BME280;12510;56.468;-3.004;2023-09-18T03:13:09;40567.59;;;-148.32;100.00
24390;BME280;12510;56.468;-3.004;2023-09-18T03:15:36;41214.75;;;-148.32;100.00
24390;BME280;12510;56.468;-3.004;2023-09-18T03:18:05;41730.94;;;-148.32;100.00
24390;BME280;12510;56.468;-3.004;2023-09-18T03:20:33;42149.91;;;-148.32;100.00
24390;BME280;12510;56.468;-3.004;2023-09-18T03:23:01;42138.00;;;-148.32;100.00
24390;BME280;12510;56.468;-3.004;2023-09-18T03:25:28;42626.53;;;-148.32;100.00
24390;BME280;12510;56.468;-3.004;2023-09-18T03:27:56;42733.78;;;-148.32;100.00
24390;BME280;12510;56.468;-3.004;2023-09-18T03:30:28;41647.56;;;-148.32;100.00
24390;BME280;12510;56.468;-3.004;2023-09-18T03:32:55;41713.06;;;-148.32;100.00
24390;BME280;12510;56.468;-3.004;2023-09-18T03:35:23;41085.69;;;-148.32;100.00
24390;BME280;12510;56.468;-3.004;2023-09-18T03:37:52;40535.84;;;-148.32;100.00
24390;BME280;12510;56.468;-3.004;2023-09-18T03:40:22;39952.31;;;-148.32;100.00
24390;BME280;12510;56.468;-3.004;2023-09-18T03:42:49;40764.13;;;-148.32;100.00
24390;BME280;12510;56.468;-3.004;2023-09-18T03:45:16;41512.53;;;-148.32;100.00
24390;BME280;12510;56.468;-3.004;2023-09-18T03:47:46;42088.38;;;-148.32;100.00
24390;BME280;12510;56.468;-3.004;2023-09-18T03:50:12;41472.84;;;-148.32;100.00
24390;BME280;12510;56.468;-3.004;2023-09-18T03:52:39;40766.09;;;-148.32;100.00
24390;BME280;12510;56.468;-3.004;2023-09-18T03:55:08;40716.47;;;-148.32;100.00
24390;BME280;12510;56.468;-3.004;2023-09-18T03:57:34;41073.78;;;-148.32;100.00
24390;BME280;12510;56.468;-3.004;2023-09-18T04:00:04;41750.81;;;-148.32;100.00
24390;BME280;12510;56.468;-3.004;2023-09-18T04:02:39;39666.53;;;-148.32;100.00
24390;BME280;12510;56.468;-3.004;2023-09-18T04:05:06;37874.94;;;-148.32;100.00
24390;BME280;12510;56.468;-3.004;2023-09-18T04:07:34;39444.28;;;-148.32;100.00
24390;BME280;12510;56.468;-3.004;2023-09-18T04:10:01;40533.84;;;-148.32;100.00
24390;BME280;12510;56.468;-3.004;2023-09-18T04:12:31;40329.41;;;-148.32;100.00
24390;BME280;12510;56.468;-3.004;2023-09-18T04:14:58;39904.69;;;-148.32;100.00
24390;BME280;12510;56.468;-3.004;2023-09-18T04:17:24;41097.63;;;-148.32;100.00
24390;BME280;12510;56.468;-3.004;2023-09-18T04:19:51;40303.59;;;-148.32;100.00
24390;BME280;12510;56.468;-3.004;2023-09-18T04:22:18;40158.72;;;-148.32;100.00
24390;BME280;12510;56.468;-3.004;2023-09-18T04:24:44;40899.09;;;-148.32;100.00
24390;BME280;12510;56.468;-3.004;2023-09-18T04:27:10;41377.53;;;-148.32;100.00
24390;BME280;12510;56.468;-3.004;2023-09-18T04:29:37;41049.97;;;-148.32;100.00
24390;BME280;12510;56.468;-3.004;2023-09-18T04:32:04;41351.72;;;-148.32;100.00
24390;BME280;12510;56.468;-3.004;2023-09-18T04:34:31;41564.16;;;-148.32;100.00
24390;BME280;12510;56.468;-3.004;2023-09-18T04:36:58;41097.63;;;-148.32;100.00
24390;BME280;12510;56.468;-3.004;2023-09-18T04:39:24;40563.63;;;-148.32;100.00
24390;BME280;12510;56.468;-3.004;2023-09-18T04:41:51;40920.94;;;-148.32;100.00
24390;BME280;12510;56.468;-3.004;2023-09-18T04:44:17;41002.31;;;-148.32;100.00
24390;BME280;12510;56.468;-3.004;2023-09-18T04:46:45;41411.28;;;-148.32;100.00
24390;BME280;12510;56.468;-3.004;2023-09-18T04:49:12;41208.78;;;-148.32;100.00
24390;BME280;12510;56.468;-3.004;2023-09-18T04:51:38;41486.75;;;-148.32;100.00
24390;BME280;12510;56.468;-3.004;2023-09-18T04:54:06;40648.97;;;-148.32;100.00
24390;BME280;12510;56.468;-3.004;2023-09-18T04:56:34;41268.34;;;-148.32;100.00
24390;BME280;12510;56.468;-3.004;2023-09-18T04:59:00;41216.72;;;-148.32;100.00
24390;BME280;12510;56.468;-3.004;2023-09-18T05:01:26;41770.66;;;-148.32;100.00
24390;BME280;12510;56.468;-3.004;2023-09-18T05:03:53;41651.53;;;-148.32;100.00
24390;BME280;12510;56.468;-3.004;2023-09-18T05:06:20;41931.50;;;-148.32;100.00
24390;BME280;12510;56.468;-3.004;2023-09-18T05:08:46;41925.53;;;-148.32;100.00
24390;BME280;12510;56.468;-3.004;2023-09-18T05:11:13;41562.19;;;-148.32;100.00
24390;BME280;12510;56.468;-3.004;2023-09-18T05:13:39;40781.97;;;-148.32;100.00
24390;BME280;12510;56.468;-3.004;2023-09-18T05:16:06;37414.78;;;-148.32;100.00
24390;BME280;12510;56.468;-3.004;2023-09-18T05:18:32;36681.00;;;-148.32;100.00
24390;BME280;12510;56.468;-3.004;2023-09-18T05:20:59;34573.66;;;-148.32;100.00
24390;BME280;12510;56.468;-3.004;2023-09-18T05:23:25;34076.22;;;-148.32;100.00
24390;BME280;12510;56.468;-3.004;2023-09-18T05:25:52;34446.81;;;-148.32;100.00
24390;BME280;12510;56.468;-3.004;2023-09-18T05:28:19;36490.63;;;-148.32;100.00
24390;BME280;12510;56.468;-3.004;2023-09-18T05:30:46;36296.31;;;-148.32;100.00
24390;BME280;12510;56.468;-3.004;2023-09-18T05:33:12;35396.25;;;-148.32;100.00
24390;BME280;12510;56.468;-3.004;2023-09-18T05:35:41;36433.13;;;-148.32;100.00
24390;BME280;12510;56.468;-3.004;2023-09-18T05:38:09;36129.78;;;-148.32;100.00
24390;BME280;12510;56.468;-3.004;2023-09-18T05:40:37;36282.44;;;-148.32;100.00
24390;BME280;12510;56.468;-3.004;2023-09-18T05:43:03;34520.16;;;-148.32;100.00
24390;BME280;12510;56.468;-3.004;2023-09-18T05:45:30;33773.03;;;-148.32;100.00
24390;BME280;12510;56.468;-3.004;2023-09-18T05:47:58;31326.63;;;-148.32;100.00
24390;BME280;12510;56.468;-3.004;2023-09-18T05:50:28;31247.41;;;-148.32;100.00
24390;BME280;12510;56.468;-3.004;2023-09-18T05:52:56;30738.53;;;-148.32;100.00
24390;BME280;12510;56.468;-3.004;2023-09-18T05:55:35;27831.00;;;-148.32;100.00
24390;BME280;12510;56.468;-3.004;2023-09-18T05:58:02;27071.34;;;-148.32;100.00
24390;BME280;12510;56.468;-3.004;2023-09-18T06:00:31;29857.53;;;-148.32;100.00
24390;BME280;12510;56.468;-3.004;2023-09-18T06:02:57;30667.25;;;-148.32;100.00
24390;BME280;12510;56.468;-3.004;2023-09-18T06:05:24;31758.34;;;-148.32;100.00
24390;BME280;12510;56.468;-3.004;2023-09-18T06:07:51;32126.75;;;-148.32;100.00
24390;BME280;12510;56.468;-3.004;2023-09-18T06:10:17;32318.88;;;-148.32;100.00
24390;BME280;12510;56.468;-3.004;2023-09-18T06:12:45;30615.78;;;-148.32;100.00
24390;BME280;12510;56.468;-3.004;2023-09-18T06:15:12;30685.06;;;-148.32;100.00
24390;BME280;12510;56.468;-3.004;2023-09-18T06:17:40;31492.97;;;-148.32;100.00
24390;BME280;12510;56.468;-3.004;2023-09-18T06:20:08;31821.72;;;-148.32;100.00
24390;BME280;12510;56.468;-3.004;2023-09-18T06:22:40;29966.41;;;-148.32;100.00
24390;BME280;12510;56.468;-3.004;2023-09-18T06:25:07;29861.50;;;-148.32;100.00
24390;BME280;12510;56.468;-3.004;2023-09-18T06:27:36;31203.84;;;-148.32;100.00
24390;BME280;12510;56.468;-3.004;2023-09-18T06:30:04;32087.13;;;-148.32;100.00
24390;BME280;12510;56.468;-3.004;2023-09-18T06:32:31;29350.81;;;-148.32;100.00
24390;BME280;12510;56.468;-3.004;2023-09-18T06:34:58;29875.34;;;-148.32;100.00
24390;BME280;12510;56.468;-3.004;2023-09-18T06:37:24;31421.69;;;-148.32;100.00
24390;BME280;12510;56.468;-3.004;2023-09-18T06:39:51;32011.88;;;-148.32;100.00
24390;BME280;12510;56.468;-3.004;2023-09-18T06:42:18;29604.16;;;-148.32;100.00
24390;BME280;12510;56.468;-3.004;2023-09-18T06:44:44;7371.63;;;-148.32;100.00
24390;BME280;12510;56.468;-3.004;2023-09-18T06:47:11;-4701.66;;;-148.32;100.00
24390;BME280;12510;56.468;-3.004;2023-09-18T06:49:38;-10724.13;;;-148.32;100.00
24390;BME280;12510;56.468;-3.004;2023-09-18T06:52:04;-10974.88;;;-148.32;100.00
24390;BME280;12510;56.468;-3.004;2023-09-18T06:54:32;-8717.69;;;-148.32;100.00
24390;BME280;12510;56.468;-3.004;2023-09-18T06:56:58;-3445.78;;;-148.32;100.00
24390;BME280;12510;56.468;-3.004;2023-09-18T06:59:25;2839.72;;;-148.32;100.00
24390;BME280;12510;56.468;-3.004;2023-09-18T07:01:51;6364.06;;;-148.32;100.00
24390;BME280;12510;56.468;-3.004;2023-09-18T07:04:18;9639.56;;;-148.32;100.00
24390;BME280;12510;56.468;-3.004;2023-09-18T07:06:44;11908.84;;;-148.32;100.00
24390;BME280;12510;56.468;-3.004;2023-09-18T07:09:12;13927.09;;;-148.32;100.00
24390;BME280;12510;56.468;-3.004;2023-09-18T07:11:40;15189.03;;;-148.32;100.00
24390;BME280;12510;56.468;-3.004;2023-09-18T07:14:06;15441.47;;;-148.32;100.00
24390;BME280;12510;56.468;-3.004;2023-09-18T07:16:34;16451.41;;;-148.32;100.00
24390;BME280;12510;56.468;-3.004;2023-09-18T07:19:00;16956.44;;;-148.32;100.00
24390;BME280;12510;56.468;-3.004;2023-09-18T07:21:27;17461.56;;;-148.32;100.00
24390;BME280;12510;56.468;-3.004;2023-09-18T07:23:55;17209.00;;;-148.32;100.00
24390;BME280;12510;56.468;-3.004;2023-09-18T07:26:22;17714.16;;;-148.32;100.00
24390;BME280;12510;56.468;-3.004;2023-09-18T07:28:48;18977.31;;;-148.32;100.00
24390;BME280;12510;56.468;-3.004;2023-09-18T07:31:15;19735.44;;;-148.32;100.00
24390;BME280;12510;56.468;-3.004;2023-09-18T07:33:41;19988.16;;;-148.32;100.00
24390;BME280;12510;56.468;-3.004;2023-09-18T07:36:08;19988.16;;;-148.32;100.00
24390;BME280;12510;56.468;-3.004;2023-09-18T07:38:36;20240.91;;;-148.32;100.00
24390;BME280;12510;56.468;-3.004;2023-09-18T07:41:03;20746.47;;;-148.32;100.00
24390;BME280;12510;56.468;-3.004;2023-09-18T07:43:30;21757.75;;;-148.32;100.00
24390;BME280;12510;56.468;-3.004;2023-09-18T07:45:56;22010.63;;;-148.32;100.00
24390;BME280;12510;56.468;-3.004;2023-09-18T07:48:24;22010.63;;;-148.32;100.00
24390;BME280;12510;56.468;-3.004;2023-09-18T07:50:50;22010.63;;;-148.32;100.00
24390;BME280;12510;56.468;-3.004;2023-09-18T07:53:17;22263.50;;;-148.32;100.00
24390;BME280;12510;56.468;-3.004;2023-09-18T07:55:43;22769.31;;;-148.32;100.00
24390;BME280;12510;56.468;-3.004;2023-09-18T07:58:10;22516.38;;;-148.32;100.00
24390;BME280;12510;56.468;-3.004;2023-09-18T08:00:37;23022.22;;;-148.32;100.00
24390;BME280;12510;56.468;-3.004;2023-09-18T08:03:04;22769.31;;;-148.32;100.00
24390;BME280;12510;56.468;-3.004;2023-09-18T08:05:30;23275.19;;;-148.32;100.00
24390;BME280;12510;56.468;-3.004;2023-09-18T08:07:57;24287.13;;;-148.32;100.00
24390;BME280;12510;56.468;-3.004;2023-09-18T08:10:25;24793.19;;;-148.32;100.00
24390;BME280;12510;56.468;-3.004;2023-09-18T08:12:52;24034.13;;;-148.32;100.00
24390;BME280;12510;56.468;-3.004;2023-09-18T08:15:21;23275.19;;;-148.32;100.00
24390;BME280;12510;56.468;-3.004;2023-09-18T08:17:48;23528.13;;;-148.32;100.00
24390;BME280;12510;56.468;-3.004;2023-09-18T08:20:15;23528.13;;;-148.32;100.00
24390;BME280;12510;56.468;-3.004;2023-09-18T08:22:43;23528.13;;;-148.32;100.00
24390;BME280;12510;56.468;-3.004;2023-09-18T08:25:11;25299.34;;;-148.32;100.00
24390;BME280;12510;56.468;-3.004;2023-09-18T08:27:38;25299.34;;;-148.32;100.00
24390;BME280;12510;56.468;-3.004;2023-09-18T08:30:11;23528.13;;;-148.32;100.00
24390;BME280;12510;56.468;-3.004;2023-09-18T08:32:39;23528.13;;;-148.32;100.00
24390;BME280;12510;56.468;-3.004;2023-09-18T08:35:08;23275.19;;;-148.32;100.00
24390;BME280;12510;56.468;-3.004;2023-09-18T08:37:34;22769.31;;;-148.32;100.00
24390;BME280;12510;56.468;-3.004;2023-09-18T08:40:01;23781.13;;;-148.32;100.00
24390;BME280;12510;56.468;-3.004;2023-09-18T08:42:38;23275.19;;;-148.32;100.00
24390;BME280;12510;56.468;-3.004;2023-09-18T08:45:06;25299.34;;;-148.32;100.00
24390;BME280;12510;56.468;-3.004;2023-09-18T08:47:33;21757.75;;;-148.32;100.00
24390;BME280;12510;56.468;-3.004;2023-09-18T08:50:00;22516.38;;;-148.32;100.00
24390;BME280;12510;56.468;-3.004;2023-09-18T08:52:28;22769.31;;;-148.32;100.00
24390;BME280;12510;56.468;-3.004;2023-09-18T08:54:55;21757.75;;;-148.32;100.00
24390;BME280;12510;56.468;-3.004;2023-09-18T08:57:23;23275.19;;;-148.32;100.00
24390;BME280;12510;56.468;-3.004;2023-09-18T08:59:51;23275.19;;;-148.32;100.00
24390;BME280;12510;56.468;-3.004;2023-09-18T09:02:19;21252.06;;;-148.32;100.00
24390;BME280;12510;56.468;-3.004;2023-09-18T09:04:45;21757.75;;;-148.32;100.00
24390;BME280;12510;56.468;-3.004;2023-09-18T09:07:11;22516.38;;;-148.32;100.00
24390;BME280;12510;56.468;-3.004;2023-09-18T09:09:38;20746.47;;;-148.32;100.00
24390;BME280;12510;56.468;-3.004;2023-09-18T09:12:05;19988.16;;;-148.32;100.00
24390;BME280;12510;56.468;-3.004;2023-09-18T09:14:32;19482.72;;;-148.32;100.00
24390;BME280;12510;56.468;-3.004;2023-09-18T09:16:58;20240.91;;;-148.32;100.00
24390;BME280;12510;56.468;-3.004;2023-09-18T09:19:30;19988.16;;;-148.32;100.00
24390;BME280;12510;56.468;-3.004;2023-09-18T09:22:00;20240.91;;;-148.32;100.00
24390;BME280;12510;56.468;-3.004;2023-09-18T09:24:40;20999.25;;;-148.32;100.00
24390;BME280;12510;56.468;-3.004;2023-09-18T09:27:08;20746.47;;;-148.32;100.00
24390;BME280;12510;56.468;-3.004;2023-09-18T09:29:35;18219.38;;;-148.32;100.00
24390;BME280;12510;56.468;-3.004;2023-09-18T09:32:18;19230.00;;;-148.32;100.00
24390;BME280;12510;56.468;-3.004;2023-09-18T09:34:46;19735.44;;;-148.32;100.00
24390;BME280;12510;56.468;-3.004;2023-09-18T09:37:12;21252.06;;;-148.32;100.00
24390;BME280;12510;56.468;-3.004;2023-09-18T09:39:49;23528.13;;;-148.32;100.00
24390;BME280;12510;56.468;-3.004;2023-09-18T09:42:18;21252.06;;;-148.32;100.00
24390;BME280;12510;56.468;-3.004;2023-09-18T09:44:48;20746.47;;;-148.32;100.00
24390;BME280;12510;56.468;-3.004;2023-09-18T09:47:21;23022.22;;;-148.32;100.00
24390;BME280;12510;56.468;-3.004;2023-09-18T09:49:48;25805.53;;;-148.32;100.00
24390;BME280;12510;56.468;-3.004;2023-09-18T09:52:18;27071.34;;;-148.32;100.00
24390;BME280;12510;56.468;-3.004;2023-09-18T09:54:48;33129.09;;;-148.32;100.00
24390;BME280;12510;56.468;-3.004;2023-09-18T09:57:15;35644.03;;;-148.32;100.00
24390;BME280;12510;56.468;-3.004;2023-09-18T09:59:41;35649.97;;;-148.32;100.00
24390;BME280;12510;56.468;-3.004;2023-09-18T10:02:10;37593.28;;;-148.32;100.00
24390;BME280;12510;56.468;-3.004;2023-09-18T10:04:47;36776.19;;;-148.32;100.00
24390;BME280;12510;56.468;-3.004;2023-09-18T10:07:15;39438.31;;;-148.32;100.00
24390;BME280;12510;56.468;-3.004;2023-09-18T10:09:45;39928.50;;;-148.32;100.00
24390;BME280;12510;56.468;-3.004;2023-09-18T10:12:15;40261.94;;;-148.32;100.00
24390;BME280;12510;56.468;-3.004;2023-09-18T10:14:47;41788.53;;;-148.32;100.00
24390;BME280;12510;56.468;-3.004;2023-09-18T10:17:17;41732.94;;;-148.32;100.00
24390;BME280;12510;56.468;-3.004;2023-09-18T10:20:12;42306.78;;;-148.32;100.00
24390;BME280;12510;56.468;-3.004;2023-09-18T10:22:53;41331.88;;;-148.32;100.00
24390;BME280;12510;56.468;-3.004;2023-09-18T10:25:23;39472.06;;;-148.32;100.00
24390;BME280;12510;56.468;-3.004;2023-09-18T10:27:51;39077.19;;;-148.32;100.00
24390;BME280;12510;56.468;-3.004;2023-09-18T10:30:24;39353.00;;;-148.32;100.00
24390;BME280;12510;56.468;-3.004;2023-09-18T10:32:53;38664.50;;;-148.32;100.00
24390;BME280;12510;56.468;-3.004;2023-09-18T10:35:19;39483.97;;;-148.32;100.00
24390;BME280;12510;56.468;-3.004;2023-09-18T10:37:48;37839.25;;;-148.32;100.00
24390;BME280;12510;56.468;-3.004;2023-09-18T10:40:17;39418.47;;;-148.32;100.00
24390;BME280;12510;56.468;-3.004;2023-09-18T10:42:45;38807.34;;;-148.32;100.00
24390;BME280;12510;56.468;-3.004;2023-09-18T10:45:12;40295.66;;;-148.32;100.00
24390;BME280;12510;56.468;-3.004;2023-09-18T10:47:43;40966.59;;;-148.32;100.00
24390;BME280;12510;56.468;-3.004;2023-09-18T10:50:11;40460.41;;;-148.32;100.00
24390;BME280;12510;56.468;-3.004;2023-09-18T10:52:44;39841.16;;;-148.32;100.00
24390;BME280;12510;56.468;-3.004;2023-09-18T10:55:13;39444.28;;;-148.32;100.00
24390;BME280;12510;56.468;-3.004;2023-09-18T10:57:50;39704.25;;;-148.32;100.00
24390;BME280;12510;56.468;-3.004;2023-09-18T11:00:17;38370.88;;;-148.32;100.00
24390;BME280;12510;56.468;-3.004;2023-09-18T11:02:51;39779.66;;;-148.32;100.00
24390;BME280;12510;56.468;-3.004;2023-09-18T11:05:30;38977.97;;;-148.32;100.00
24390;BME280;12510;56.468;-3.004;2023-09-18T11:11:10;40482.25;;;-148.32;100.00
24390;BME280;12510;56.468;-3.004;2023-09-18T11:13:47;40641.03;;;-148.32;100.00
24390;BME280;12510;56.468;-3.004;2023-09-18T11:21:26;42821.16;;;-148.32;100.00
24390;BME280;12510;56.468;-3.004;2023-09-18T11:24:16;42185.66;;;-148.32;100.00
24390;BME280;12510;56.468;-3.004;2023-09-18T11:26:45;41566.16;;;-148.32;100.00
24390;BME280;12510;56.468;-3.004;2023-09-18T11:29:17;43283.94;;;-148.32;100.00
24390;BME280;12510;56.468;-3.004;2023-09-18T11:31:53;41349.75;;;-148.32;100.00
24390;BME280;12510;56.468;-3.004;2023-09-18T11:34:28;44841.53;;;-148.32;100.00
24390;BME280;12510;56.468;-3.004;2023-09-18T11:36:57;44628.91;;;-148.32;100.00
24390;BME280;12510;56.468;-3.004;2023-09-18T11:42:08;45386.03;;;-148.32;100.00
24390;BME280;12510;56.468;-3.004;2023-09-18T11:44:36;45880.91;;;-148.32;100.00
24390;BME280;12510;56.468;-3.004;2023-09-18T11:47:09;47167.13;;;-148.32;100.00
24390;BME280;12510;56.468;-3.004;2023-09-18T11:49:46;47061.75;;;-148.32;100.00
24390;BME280;12510;56.468;-3.004;2023-09-18T11:52:17;47946.59;;;-148.32;100.00
24390;BME280;12510;56.468;-3.004;2023-09-18T11:54:45;48177.28;;;-148.32;100.00
24390;BME280;12510;56.468;-3.004;2023-09-18T11:57:13;48600.94;;;-148.32;100.00
24390;BME280;12510;56.468;-3.004;2023-09-18T11:59:41;49114.13;;;-148.32;100.00
24390;BME280;12510;56.468;-3.004;2023-09-18T12:02:17;49321.00;;;-148.32;100.00
24390;BME280;12510;56.468;-3.004;2023-09-18T12:04:54;50096.94;;;-148.32;100.00
24390;BME280;12510;56.468;-3.004;2023-09-18T12:07:21;50383.47;;;-148.32;100.00
24390;BME280;12510;56.468;-3.004;2023-09-18T12:09:47;49545.81;;;-148.32;100.00
24390;BME280;12510;56.468;-3.004;2023-09-18T12:12:14;50751.63;;;-148.32;100.00
24390;BME280;12510;56.468;-3.004;2023-09-18T12:14:42;50715.81;;;-148.32;100.00
24390;BME280;12510;56.468;-3.004;2023-09-18T12:17:08;50936.72;;;-148.32;100.00
24390;BME280;12510;56.468;-3.004;2023-09-18T12:19:35;51527.84;;;-148.32;100.00
24390;BME280;12510;56.468;-3.004;2023-09-18T12:22:01;52138.94;;;-148.32;100.00
24390;BME280;12510;56.468;-3.004;2023-09-18T12:24:30;52166.81;;;-148.32;100.00
24390;BME280;12510;56.468;-3.004;2023-09-18T12:26:58;52194.69;;;-148.32;100.00
24390;BME280;12510;56.468;-3.004;2023-09-18T12:29:25;52095.16;;;-148.32;100.00
24390;BME280;12510;56.468;-3.004;2023-09-18T12:31:51;51824.41;;;-148.32;100.00
24390;BME280;12510;56.468;-3.004;2023-09-18T12:34:19;51748.78;;;-148.32;100.00
24390;BME280;12510;56.468;-3.004;2023-09-18T12:36:50;51736.84;;;-148.32;100.00
24390;BME280;12510;56.468;-3.004;2023-09-18T12:39:17;51935.91;;;-148.32;100.00
24390;BME280;12510;56.468;-3.004;2023-09-18T12:41:47;51573.59;;;-148.32;100.00